To NAV CANADA Home Page Login to a new session Search on AWWS site Feedback and Comments Disclaimer Vers la page française équivalente Tips FAQ What's new on the site To the Forecasts and Observations / NOTAM section To "File a Flight Plan" website Publications and other links Update of the User's profile FIC Telephone Numbers My Weather Data Folder Route Weather Data Regional Weather Data Local Weather Data To the Forecasts and Observations / NOTAM section
Request Generated 04/23/2014 at 07:15:20 UTC . Weather information available at that time is displayed.

METAR/TAF

CAPE DORSET/NU    

METAR CYTE 230700Z AUTO VRB02KT 9SM SCT017 M15/M17 A3014 RMK SLP212=
SPECI CYTE 230655Z AUTO 00000KT 9SM SCT017 M15/M17 A3014 RMK SLP213=
SPECI CYTE 230645Z AUTO VRB02KT 9SM BKN019 M15/M17 A3014 RMK SLP212=
METAR CYTE 230600Z AUTO 00000KT 9SM FEW019 M14/M16 A3014 RMK SLP211=
METAR CYTE 230500Z AUTO 02004KT 9SM CLR M14/M16 A3013 RMK SLP208=

TAF AMD CYTE 230649Z 2307/2319 VRB03KT P6SM SCT020 TEMPO 2307/2312
BKN020
RMK FCST BASED ON AUTO OBS. NXT FCST BY 231300Z=
Your time UTC time
Weather data provided by Environment Canada and NAV CANADA